createdAt,value
2023-04-18T00:00:29.920Z,95904.44
2023-04-18T00:02:56.485Z,95898.56
2023-04-18T00:05:23.169Z,95895.63
2023-04-18T00:07:49.683Z,95898.78
2023-04-18T00:10:16.427Z,95895.13
2023-04-18T00:12:42.986Z,95881.50
2023-04-18T00:15:09.858Z,95883.84
2023-04-18T00:17:37.736Z,95887.91
2023-04-18T00:20:04.434Z,95884.34
2023-04-18T00:22:30.895Z,95881.16
2023-04-18T00:24:57.296Z,95891.28
2023-04-18T00:27:23.748Z,95886.50
2023-04-18T00:29:50.286Z,95881.91
2023-04-18T00:32:16.708Z,95872.28
2023-04-18T00:34:44.527Z,95878.81
2023-04-18T00:37:10.967Z,95889.03
2023-04-18T00:39:37.520Z,95882.84
2023-04-18T00:42:04.126Z,95885.91
2023-04-18T00:44:30.899Z,95878.09
2023-04-18T00:46:57.375Z,95885.53
2023-04-18T00:49:24.094Z,95889.22
2023-04-18T00:51:51.933Z,95891.69
2023-04-18T00:54:18.417Z,95885.63
2023-04-18T00:56:44.858Z,95878.47
2023-04-18T00:59:11.348Z,95873.88
2023-04-18T01:01:37.865Z,95883.34
2023-04-18T01:04:04.438Z,95879.13
2023-04-18T01:06:31.008Z,95875.63
2023-04-18T01:08:58.814Z,95871.16
2023-04-18T01:11:25.294Z,95882.22
2023-04-18T01:13:58.499Z,95883.03
2023-04-18T01:16:25.074Z,95874.81
2023-04-18T01:18:51.594Z,95875.34
2023-04-18T01:21:18.049Z,95869.47
2023-04-18T01:23:44.481Z,95866.94
2023-04-18T01:26:12.321Z,95867.94
2023-04-18T01:28:38.768Z,95869.66
2023-04-18T01:31:05.429Z,95866.91
2023-04-18T01:33:31.911Z,95872.91
2023-04-18T01:35:58.531Z,95864.13
2023-04-18T01:38:24.930Z,95872.41
2023-04-18T01:40:51.400Z,95867.16
2023-04-18T01:43:19.247Z,95861.00
2023-04-18T01:45:45.710Z,95869.72
2023-04-18T01:48:12.152Z,95866.75
2023-04-18T01:50:38.639Z,95867.16
2023-04-18T01:53:05.082Z,95862.22
2023-04-18T01:55:31.541Z,95862.22
2023-04-18T01:57:57.970Z,95863.53
2023-04-18T02:00:25.856Z,95867.16
2023-04-18T02:02:52.434Z,95858.25
2023-04-18T02:05:18.968Z,95870.19
2023-04-18T02:07:45.406Z,95863.69
2023-04-18T02:10:11.858Z,95866.50
2023-04-18T02:12:38.280Z,95864.97
2023-04-18T02:15:05.307Z,95861.41
2023-04-18T02:17:33.209Z,95860.66
2023-04-18T02:19:59.716Z,95866.31
2023-04-18T02:22:26.253Z,95869.09
2023-04-18T02:24:52.721Z,95866.00
2023-04-18T02:27:19.197Z,95869.88
2023-04-18T02:29:45.638Z,95876.56
2023-04-18T02:32:12.261Z,95873.72
2023-04-18T02:34:40.220Z,95873.66
2023-04-18T02:37:06.664Z,95867.88
2023-04-18T02:39:33.222Z,95874.09
2023-04-18T02:41:59.754Z,95869.53
2023-04-18T02:44:26.363Z,95870.63
2023-04-18T02:46:52.825Z,95873.25
2023-04-18T02:49:19.262Z,95874.56
2023-04-18T02:51:47.127Z,95861.75
2023-04-18T02:54:13.877Z,95870.72
2023-04-18T02:56:40.590Z,95871.53
2023-04-18T02:59:07.080Z,95866.78
2023-04-18T03:01:33.613Z,95858.63
2023-04-18T03:04:00.063Z,95863.16
2023-04-18T03:06:26.511Z,95865.03
2023-04-18T03:08:54.420Z,95861.84
2023-04-18T03:11:20.880Z,95862.94
2023-04-18T03:13:47.338Z,95863.81
2023-04-18T03:16:13.804Z,95859.78
2023-04-18T03:18:40.362Z,95859.78
2023-04-18T03:21:06.771Z,95868.41
2023-04-18T03:23:33.276Z,95860.50
2023-04-18T03:26:01.102Z,95863.53
2023-04-18T03:28:27.516Z,95864.81
2023-04-18T03:30:53.990Z,95853.72
2023-04-18T03:33:20.485Z,95862.78
2023-04-18T03:35:47.093Z,95862.91
2023-04-18T03:38:13.542Z,95873.34
2023-04-18T03:40:40.120Z,95860.56
2023-04-18T03:43:07.938Z,95854.69
2023-04-18T03:45:34.439Z,95855.47
2023-04-18T03:48:00.949Z,95857.59
2023-04-18T03:50:27.557Z,95862.13
2023-04-18T03:52:54.020Z,95852.66
2023-04-18T03:55:20.631Z,95853.94
2023-04-18T03:57:47.088Z,95858.50
2023-04-18T04:00:15.435Z,95859.50
2023-04-18T04:02:41.989Z,95865.03
2023-04-18T04:05:08.703Z,95859.47
2023-04-18T04:07:35.241Z,95869.09
2023-04-18T04:10:01.728Z,95865.50
2023-04-18T04:12:28.207Z,95861.84
2023-04-18T04:14:54.667Z,95860.69
2023-04-18T04:17:22.516Z,95869.09
2023-04-18T04:19:49.188Z,95872.03
2023-04-18T04:22:15.668Z,95876.25
2023-04-18T04:24:42.122Z,95863.69
2023-04-18T04:27:08.686Z,95867.94
2023-04-18T04:29:35.131Z,95860.06
2023-04-18T04:32:01.636Z,95865.28
2023-04-18T04:34:29.533Z,95870.88
2023-04-18T04:36:56.046Z,95875.97
2023-04-18T04:39:22.530Z,95864.19
2023-04-18T04:41:49.088Z,95872.34
2023-04-18T04:44:15.806Z,95878.38
2023-04-18T04:46:42.454Z,95874.13
2023-04-18T04:49:08.882Z,95876.59
2023-04-18T04:51:36.710Z,95882.47
2023-04-18T04:54:03.220Z,95877.25
2023-04-18T04:56:29.700Z,95880.50
2023-04-18T04:58:56.297Z,95879.88
2023-04-18T05:01:22.801Z,95886.66
2023-04-18T05:03:49.531Z,95882.78
2023-04-18T05:06:16.022Z,95880.38
2023-04-18T05:08:43.929Z,95891.94
2023-04-18T05:11:10.360Z,95886.91
2023-04-18T05:13:36.814Z,95889.03
2023-04-18T05:16:03.488Z,95893.75
2023-04-18T05:18:29.981Z,95893.44
2023-04-18T05:20:56.451Z,95892.13
2023-04-18T05:23:22.877Z,95888.66
2023-04-18T05:25:50.754Z,95895.19
2023-04-18T05:28:17.184Z,95887.88
2023-04-18T05:30:44.737Z,95885.41
2023-04-18T05:33:11.192Z,95889.66
2023-04-18T05:35:37.682Z,95888.34
2023-04-18T05:38:04.192Z,95892.13
2023-04-18T05:40:30.611Z,95887.69
2023-04-18T05:42:58.435Z,95892.53
2023-04-18T05:45:25.094Z,95888.94
2023-04-18T05:47:51.960Z,95897.94
2023-04-18T05:50:18.433Z,95895.84
2023-04-18T05:52:44.900Z,95892.94
2023-04-18T05:55:11.410Z,95903.69
2023-04-18T05:57:37.808Z,95889.13
2023-04-18T06:00:06.652Z,95906.47
2023-04-18T06:02:33.211Z,95914.47
2023-04-18T06:04:59.834Z,95915.28
2023-04-18T06:07:26.442Z,95908.94
2023-04-18T06:09:52.880Z,95907.25
2023-04-18T06:12:19.296Z,95912.81
2023-04-18T06:14:45.748Z,95909.25
2023-04-18T06:17:13.830Z,95912.50
2023-04-18T06:19:40.369Z,95934.06
2023-04-18T06:22:06.827Z,95924.09
2023-04-18T06:24:33.349Z,95918.19
2023-04-18T06:26:59.828Z,95916.38
2023-04-18T06:29:26.265Z,95923.28
2023-04-18T06:31:52.752Z,95921.78
2023-04-18T06:34:20.605Z,95926.44
2023-04-18T06:36:47.066Z,95930.06
2023-04-18T06:39:13.613Z,95926.97
2023-04-18T06:41:40.185Z,95931.41
2023-04-18T06:44:06.628Z,95929.00
2023-04-18T06:46:33.106Z,95930.59
2023-04-18T06:48:59.659Z,95932.81
2023-04-18T06:51:27.622Z,95933.53
2023-04-18T06:53:54.113Z,95925.03
2023-04-18T06:56:20.769Z,95926.41
2023-04-18T06:58:47.308Z,95931.47
2023-04-18T07:01:13.788Z,95927.34
2023-04-18T07:03:40.395Z,95932.75
2023-04-18T07:06:06.957Z,95927.88
2023-04-18T07:08:34.869Z,95927.81
2023-04-18T07:11:01.301Z,95929.69
2023-04-18T07:13:27.800Z,95929.47
2023-04-18T07:15:54.273Z,95922.00
2023-04-18T07:18:30.323Z,95929.44
2023-04-18T07:21:03.612Z,95926.94
2023-04-18T07:23:30.105Z,95932.19
2023-04-18T07:25:57.927Z,95930.66
2023-04-18T07:28:24.395Z,95923.19
2023-04-18T07:30:50.907Z,95924.97
2023-04-18T07:33:17.479Z,95925.94
2023-04-18T07:35:43.980Z,95924.28
2023-04-18T07:38:10.426Z,95926.06
2023-04-18T07:40:36.928Z,95928.56
2023-04-18T07:43:04.807Z,95926.41
2023-04-18T07:45:31.231Z,95919.03
2023-04-18T07:47:57.756Z,95928.25
2023-04-18T07:50:24.263Z,95921.44
2023-04-18T07:52:50.801Z,95918.97
2023-04-18T07:55:17.311Z,95920.56
2023-04-18T07:57:44.883Z,95913.06
2023-04-18T08:00:14.781Z,95919.81
2023-04-18T08:02:41.592Z,95908.56
2023-04-18T08:05:08.769Z,95913.19
2023-04-18T08:07:35.303Z,95929.84
2023-04-18T08:10:01.797Z,95926.34
2023-04-18T08:12:28.245Z,95924.75
2023-04-18T08:14:54.732Z,95931.94
2023-04-18T08:17:22.723Z,95927.97
2023-04-18T08:19:49.203Z,95935.13
2023-04-18T08:22:15.725Z,95941.88
2023-04-18T08:24:54.060Z,95944.16
2023-04-18T08:27:28.572Z,95946.53
2023-04-18T08:29:55.037Z,95941.31
2023-04-18T08:32:22.866Z,95933.22
2023-04-18T08:34:49.411Z,95946.22
2023-04-18T08:37:15.838Z,95951.91
2023-04-18T08:39:42.647Z,95949.50
2023-04-18T08:42:09.111Z,95956.34
2023-04-18T08:44:35.491Z,95958.22
2023-04-18T08:47:02.060Z,95960.28
2023-04-18T08:49:29.924Z,95961.91
2023-04-18T08:51:56.362Z,95964.34
2023-04-18T08:54:22.913Z,95972.63
2023-04-18T08:57:03.234Z,95971.13
2023-04-18T08:59:29.698Z,95964.88
2023-04-18T09:01:57.005Z,95971.94
2023-04-18T09:04:35.236Z,95969.41
2023-04-18T09:07:01.841Z,95968.91
2023-04-18T09:09:28.445Z,95974.06
2023-04-18T09:12:05.135Z,95974.50
2023-04-18T09:14:31.601Z,95979.22
2023-04-18T09:16:58.195Z,95982.22
2023-04-18T09:19:30.549Z,95978.44
2023-04-18T09:21:58.948Z,95985.75
2023-04-18T09:24:25.529Z,95979.06
2023-04-18T09:26:52.495Z,95980.09
2023-04-18T09:29:19.224Z,95977.34
2023-04-18T09:31:58.523Z,95976.72
2023-04-18T09:34:25.110Z,95982.16
2023-04-18T09:37:11.719Z,95986.09
2023-04-18T09:39:39.487Z,95973.63
2023-04-18T09:42:06.029Z,95967.56
2023-04-18T09:44:32.456Z,95966.03
2023-04-18T09:46:58.910Z,95961.31
2023-04-18T09:49:25.355Z,95965.44
2023-04-18T09:51:52.477Z,95972.16
2023-04-18T09:54:20.291Z,95967.88
2023-04-18T09:56:47.384Z,95974.78
2023-04-18T09:59:14.817Z,95960.94
2023-04-18T10:01:54.411Z,95967.47
2023-04-18T10:04:21.023Z,95961.66
2023-04-18T10:06:47.747Z,95968.66
2023-04-18T10:09:14.550Z,95967.25
2023-04-18T10:11:42.648Z,95967.88
2023-04-18T10:14:10.251Z,95973.97
2023-04-18T10:16:36.857Z,95974.72
2023-04-18T10:19:18.202Z,95973.44
2023-04-18T10:21:50.592Z,95954.94
2023-04-18T10:24:34.766Z,95961.81
2023-04-18T10:27:02.679Z,95956.13
2023-04-18T10:29:43.952Z,95960.41
2023-04-18T10:32:10.449Z,95963.84
2023-04-18T10:34:36.927Z,95953.69
2023-04-18T10:37:03.577Z,95953.06
2023-04-18T10:39:29.993Z,95956.50
2023-04-18T10:41:57.773Z,95955.00
2023-04-18T10:44:25.588Z,95955.16
2023-04-18T10:47:22.337Z,95958.75
2023-04-18T10:49:58.383Z,95949.34
2023-04-18T10:52:24.885Z,95952.06
2023-04-18T10:54:51.994Z,95944.53
2023-04-18T10:57:18.549Z,95939.88
2023-04-18T10:59:48.169Z,95944.16
2023-04-18T11:02:19.219Z,95939.03
2023-04-18T11:04:48.694Z,95922.56
2023-04-18T11:07:15.173Z,95923.69
2023-04-18T11:09:42.308Z,95924.91
2023-04-18T11:12:10.608Z,95926.38
2023-04-18T11:14:40.280Z,95928.25
2023-04-18T11:17:21.052Z,95921.84
2023-04-18T11:19:47.700Z,95924.63
2023-04-18T11:22:14.285Z,95929.44
2023-04-18T11:24:40.727Z,95930.38
2023-04-18T11:27:08.483Z,95935.13
2023-04-18T11:29:34.921Z,95934.50
2023-04-18T11:32:01.423Z,95942.34
2023-04-18T11:34:30.103Z,95943.72
2023-04-18T11:36:56.572Z,95942.13
2023-04-18T11:39:23.240Z,95945.34
2023-04-18T11:41:49.713Z,95944.78
2023-04-18T11:44:16.203Z,95937.66
2023-04-18T11:46:42.656Z,95949.22
2023-04-18T11:49:23.710Z,95953.09
2023-04-18T11:51:51.525Z,95943.91
2023-04-18T11:54:36.491Z,95948.19
2023-04-18T11:57:03.012Z,95944.41
2023-04-18T11:59:29.542Z,95946.56
2023-04-18T12:01:58.987Z,95944.75
2023-04-18T12:04:25.675Z,95944.91
2023-04-18T12:06:53.784Z,95934.78
2023-04-18T12:09:20.920Z,95951.06
2023-04-18T12:11:56.448Z,95947.81
2023-04-18T12:14:22.901Z,95938.44
2023-04-18T12:16:49.360Z,95944.94
2023-04-18T12:19:15.796Z,95950.44
2023-04-18T12:21:55.362Z,95949.41
2023-04-18T12:24:22.342Z,95953.22
2023-04-18T12:26:48.797Z,95947.53
2023-04-18T12:29:15.351Z,95958.41
2023-04-18T12:31:41.955Z,95946.84
2023-04-18T12:34:08.413Z,95946.97
2023-04-18T12:36:34.944Z,95948.91
2023-04-18T12:39:02.760Z,95945.34
2023-04-18T12:41:29.274Z,95940.44
2023-04-18T12:43:55.700Z,95943.16
2023-04-18T12:46:22.146Z,95949.41
2023-04-18T12:48:48.626Z,95941.28
2023-04-18T12:51:15.104Z,95941.50
2023-04-18T12:53:41.541Z,95942.91
2023-04-18T12:56:09.587Z,95946.16
2023-04-18T12:58:36.034Z,95940.88
2023-04-18T13:01:02.604Z,95938.00
2023-04-18T13:03:29.227Z,95940.88
2023-04-18T13:05:55.732Z,95940.06
2023-04-18T13:08:22.172Z,95936.84
2023-04-18T13:10:48.694Z,95943.09
2023-04-18T13:13:16.609Z,95949.00
2023-04-18T13:15:43.155Z,95956.75
2023-04-18T13:18:09.631Z,95942.50
2023-04-18T13:20:36.081Z,95948.03
2023-04-18T13:23:02.630Z,95953.47
2023-04-18T13:25:29.086Z,95954.88
2023-04-18T13:27:55.615Z,95949.41
2023-04-18T13:30:23.440Z,95945.94
2023-04-18T13:32:50.106Z,95946.16
2023-04-18T13:35:16.640Z,95947.59
2023-04-18T13:37:43.112Z,95948.19
2023-04-18T13:40:09.905Z,95946.75
2023-04-18T13:42:36.762Z,95944.28
2023-04-18T13:45:03.390Z,95952.03
2023-04-18T13:47:31.306Z,95947.56
2023-04-18T13:49:58.022Z,95944.56
2023-04-18T13:52:24.609Z,95949.78
2023-04-18T13:54:51.069Z,95946.16
2023-04-18T13:57:17.507Z,95950.66
2023-04-18T13:59:44.045Z,95955.91
2023-04-18T14:02:10.755Z,95950.97
2023-04-18T14:04:39.050Z,95951.19
2023-04-18T14:07:05.571Z,95957.31
2023-04-18T14:09:32.010Z,95959.91
2023-04-18T14:11:58.474Z,95954.78
2023-04-18T14:14:24.960Z,95962.84
2023-04-18T14:16:54.134Z,95966.19
2023-04-18T14:19:20.665Z,95969.06
2023-04-18T14:21:52.995Z,95971.88
2023-04-18T14:24:19.420Z,95968.09
2023-04-18T14:26:48.546Z,95972.72
2023-04-18T14:29:15.173Z,95983.06
2023-04-18T14:31:42.068Z,95973.19
2023-04-18T14:34:15.408Z,95978.69
2023-04-18T14:36:41.852Z,95982.00
2023-04-18T14:39:09.749Z,95979.75
2023-04-18T14:41:36.218Z,95978.03
2023-04-18T14:44:02.700Z,95983.94
2023-04-18T14:46:29.158Z,95974.22
2023-04-18T14:48:55.635Z,95974.00
2023-04-18T14:51:22.665Z,95971.53
2023-04-18T14:53:49.086Z,95975.75
2023-04-18T14:56:17.034Z,95989.34
2023-04-18T14:58:43.511Z,95979.25
2023-04-18T15:01:09.931Z,95984.53
2023-04-18T15:03:36.572Z,95987.25
2023-04-18T15:06:03.221Z,95982.84
2023-04-18T15:08:31.351Z,95992.22
2023-04-18T15:10:59.153Z,95997.00
2023-04-18T15:13:26.943Z,95998.69
2023-04-18T15:15:53.879Z,95997.94
2023-04-18T15:18:20.348Z,95995.41
2023-04-18T15:20:46.773Z,95994.53
2023-04-18T15:23:13.208Z,96004.44
2023-04-18T15:25:39.669Z,96003.56
2023-04-18T15:28:06.095Z,95995.69
2023-04-18T15:30:33.996Z,95995.31
2023-04-18T15:33:00.504Z,96001.38
2023-04-18T15:35:27.078Z,95999.53
2023-04-18T15:37:53.536Z,96001.91
2023-04-18T15:40:20.040Z,95998.88
2023-04-18T15:42:46.486Z,96000.50
2023-04-18T15:45:12.971Z,96001.91
2023-04-18T15:47:40.876Z,96005.53
2023-04-18T15:50:07.986Z,96003.66
2023-04-18T15:52:34.518Z,96001.91
2023-04-18T15:55:00.997Z,96003.38
2023-04-18T15:57:27.456Z,96002.75
2023-04-18T15:59:53.924Z,96008.38
2023-04-18T16:02:20.424Z,96007.94
2023-04-18T16:04:48.408Z,96012.25
2023-04-18T16:07:14.900Z,96013.25
2023-04-18T16:09:41.333Z,96016.53
2023-04-18T16:12:07.793Z,96010.19
2023-04-18T16:14:34.227Z,96017.47
2023-04-18T16:17:00.666Z,96011.56
2023-04-18T16:19:27.128Z,96013.88
2023-04-18T16:21:54.970Z,96014.22
2023-04-18T16:24:21.393Z,96010.88
2023-04-18T16:26:47.883Z,96012.78
2023-04-18T16:29:14.373Z,96009.19
2023-04-18T16:31:40.870Z,96016.59
2023-04-18T16:34:07.321Z,96018.41
2023-04-18T16:36:33.862Z,96013.56
2023-04-18T16:39:01.691Z,96010.38
2023-04-18T16:41:28.118Z,96002.97
2023-04-18T16:43:54.582Z,96010.69
2023-04-18T16:46:21.064Z,96006.47
2023-04-18T16:48:47.510Z,96003.47
2023-04-18T16:51:13.987Z,96010.53
2023-04-18T16:53:40.451Z,96009.25
2023-04-18T16:56:08.406Z,96007.19
2023-04-18T16:58:34.832Z,96004.81
2023-04-18T17:01:01.392Z,96000.38
2023-04-18T17:03:27.931Z,96006.09
2023-04-18T17:05:54.524Z,96004.66
2023-04-18T17:08:20.979Z,96004.88
2023-04-18T17:10:47.401Z,96002.50
2023-04-18T17:13:15.219Z,96010.38
2023-04-18T17:15:41.657Z,96011.59
2023-04-18T17:18:08.135Z,96012.72
2023-04-18T17:20:34.636Z,96018.66
2023-04-18T17:23:01.060Z,96018.97
2023-04-18T17:25:27.617Z,96019.28
2023-04-18T17:27:54.053Z,96027.00
2023-04-18T17:30:22.035Z,96024.38
2023-04-18T17:32:48.559Z,96022.56
2023-04-18T17:35:15.081Z,96025.69
2023-04-18T17:37:41.568Z,96022.41
2023-04-18T17:40:11.199Z,96027.38
2023-04-18T17:42:37.649Z,96027.78
2023-04-18T17:45:04.475Z,96030.56
2023-04-18T17:47:32.370Z,96035.81
2023-04-18T17:49:58.983Z,96035.81
2023-04-18T17:52:25.614Z,96038.19
2023-04-18T17:54:52.019Z,96036.28
2023-04-18T17:57:18.538Z,96040.63
2023-04-18T17:59:45.058Z,96035.97
2023-04-18T18:02:11.668Z,96034.34
2023-04-18T18:04:39.724Z,96039.44
2023-04-18T18:07:06.306Z,96046.44
2023-04-18T18:09:32.770Z,96044.97
2023-04-18T18:11:59.290Z,96058.28
2023-04-18T18:14:26.260Z,96046.59
2023-04-18T18:16:52.748Z,96047.75
2023-04-18T18:19:19.633Z,96061.09
2023-04-18T18:21:47.430Z,96060.81
2023-04-18T18:24:13.902Z,96065.00
2023-04-18T18:26:40.330Z,96068.06
2023-04-18T18:29:06.795Z,96065.97
2023-04-18T18:31:33.271Z,96070.50
2023-04-18T18:33:59.805Z,96065.38
2023-04-18T18:36:26.229Z,96061.34
2023-04-18T18:38:54.103Z,96064.22
2023-04-18T18:41:20.897Z,96073.53
2023-04-18T18:43:47.348Z,96082.78
2023-04-18T18:46:14.198Z,96071.41
2023-04-18T18:48:40.749Z,96081.56
2023-04-18T18:51:07.216Z,96085.28
2023-04-18T18:53:33.734Z,96081.91
2023-04-18T18:56:01.823Z,96078.84
2023-04-18T18:58:28.265Z,96085.50
2023-04-18T19:00:54.712Z,96083.28
2023-04-18T19:03:21.485Z,96080.34
2023-04-18T19:05:48.176Z,96091.78
2023-04-18T19:08:14.640Z,96087.97
2023-04-18T19:10:41.123Z,96092.72
2023-04-18T19:13:08.993Z,96100.16
2023-04-18T19:15:35.493Z,96090.53
2023-04-18T19:18:02.075Z,96098.50
2023-04-18T19:20:29.297Z,96099.56
2023-04-18T19:22:55.780Z,96106.53
2023-04-18T19:25:22.213Z,96103.69
2023-04-18T19:27:48.723Z,96101.03
2023-04-18T19:30:16.588Z,96099.84
2023-04-18T19:32:43.066Z,96097.50
2023-04-18T19:35:09.625Z,96098.97
2023-04-18T19:37:36.079Z,96094.78
2023-04-18T19:40:02.534Z,96101.50
2023-04-18T19:42:29.019Z,96099.78
2023-04-18T19:44:55.487Z,96101.22
2023-04-18T19:47:23.391Z,96100.78
2023-04-18T19:49:49.882Z,96094.31
2023-04-18T19:52:16.372Z,96106.28
2023-04-18T19:54:42.786Z,96101.00
2023-04-18T19:57:09.474Z,96109.06
2023-04-18T19:59:35.927Z,96106.84
2023-04-18T20:02:05.198Z,96102.75
2023-04-18T20:04:34.255Z,96107.53
2023-04-18T20:07:00.866Z,96102.25
2023-04-18T20:09:27.302Z,96112.53
2023-04-18T20:11:53.743Z,96108.16
2023-04-18T20:14:20.225Z,96113.50
2023-04-18T20:16:46.714Z,96107.56
2023-04-18T20:19:14.002Z,96104.91
2023-04-18T20:21:42.304Z,96106.97
2023-04-18T20:24:08.771Z,96105.09
2023-04-18T20:26:35.200Z,96104.66
2023-04-18T20:29:01.619Z,96101.72
2023-04-18T20:31:28.126Z,96098.94
2023-04-18T20:33:54.561Z,96104.19
2023-04-18T20:36:21.033Z,96108.72
2023-04-18T20:38:48.854Z,96111.31
2023-04-18T20:41:17.300Z,96105.47
2023-04-18T20:43:43.875Z,96110.94
2023-04-18T20:46:10.350Z,96106.34
2023-04-18T20:48:36.831Z,96099.41
2023-04-18T20:51:03.284Z,96104.28
2023-04-18T20:53:29.779Z,96108.97
2023-04-18T20:55:57.575Z,96106.97
2023-04-18T20:58:24.058Z,96107.81
2023-04-18T21:00:50.514Z,96102.13
2023-04-18T21:03:17.232Z,96104.50
2023-04-18T21:05:43.959Z,96107.41
2023-04-18T21:08:10.394Z,96114.56
2023-04-18T21:10:36.835Z,96110.69
2023-04-18T21:13:04.636Z,96105.66
2023-04-18T21:15:31.154Z,96111.41
2023-04-18T21:17:57.663Z,96110.88
2023-04-18T21:20:24.197Z,96106.88
2023-04-18T21:22:50.662Z,96108.38
2023-04-18T21:25:17.169Z,96105.13
2023-04-18T21:27:43.620Z,96111.19
2023-04-18T21:30:11.910Z,96106.66
2023-04-18T21:32:38.429Z,96105.09
2023-04-18T21:35:05.276Z,96105.28
2023-04-18T21:37:31.716Z,96107.53
2023-04-18T21:39:58.160Z,96106.97
2023-04-18T21:42:24.708Z,96113.13
2023-04-18T21:44:51.141Z,96111.94
2023-04-18T21:47:18.968Z,96104.66
2023-04-18T21:49:45.461Z,96110.06
2023-04-18T21:52:11.884Z,96106.81
2023-04-18T21:54:38.322Z,96110.94
2023-04-18T21:57:04.805Z,96104.28
2023-04-18T21:59:31.400Z,96107.22
2023-04-18T22:01:57.937Z,96103.28
2023-04-18T22:04:26.115Z,96114.22
2023-04-18T22:06:52.974Z,96102.22
2023-04-18T22:09:19.468Z,96108.53
2023-04-18T22:11:45.914Z,96110.38
2023-04-18T22:14:12.389Z,96107.38
2023-04-18T22:16:39.065Z,96098.84
2023-04-18T22:19:05.818Z,96102.78
2023-04-18T22:21:33.637Z,96100.03
2023-04-18T22:24:00.111Z,96096.66
2023-04-18T22:26:26.582Z,96093.50
2023-04-18T22:28:53.078Z,96090.63
2023-04-18T22:31:19.559Z,96096.53
2023-04-18T22:33:46.056Z,96091.66
2023-04-18T22:36:12.487Z,96092.25
2023-04-18T22:38:40.296Z,96087.63
2023-04-18T22:41:06.731Z,96089.88
2023-04-18T22:43:33.187Z,96089.84
2023-04-18T22:45:59.681Z,96095.88
2023-04-18T22:48:26.141Z,96087.69
2023-04-18T22:50:52.619Z,96098.38
2023-04-18T22:53:19.047Z,96087.31
2023-04-18T22:55:46.932Z,96094.78
2023-04-18T22:58:13.383Z,96096.94
2023-04-18T23:00:39.891Z,96097.25
2023-04-18T23:03:06.532Z,96094.94
2023-04-18T23:05:33.061Z,96093.88
2023-04-18T23:08:00.527Z,96096.06
2023-04-18T23:10:27.189Z,96094.88
2023-04-18T23:12:55.063Z,96092.75
2023-04-18T23:15:21.541Z,96090.94
2023-04-18T23:17:48.126Z,96095.19
2023-04-18T23:20:14.694Z,96084.53
2023-04-18T23:22:41.131Z,96095.50
2023-04-18T23:25:07.745Z,96088.09
2023-04-18T23:27:34.295Z,96086.91
2023-04-18T23:30:02.076Z,96084.66
2023-04-18T23:32:28.646Z,96084.00
2023-04-18T23:34:55.096Z,96085.06
2023-04-18T23:37:21.562Z,96082.50
2023-04-18T23:39:48.134Z,96080.97
2023-04-18T23:42:14.609Z,96083.78
2023-04-18T23:44:41.081Z,96081.88
2023-04-18T23:47:08.988Z,96088.13
2023-04-18T23:49:35.468Z,96083.69
2023-04-18T23:52:01.923Z,96076.84
2023-04-18T23:54:28.517Z,96071.00
2023-04-18T23:56:54.942Z,96075.19
2023-04-18T23:59:21.385Z,96071.81
